To NAV CANADA Home Page Login to a new session Search on AWWS site Disclaimer Vers la page française équivalente Tips FAQ What's new on the site To the Forecasts and Observations / NOTAM section To "File a Flight Plan" website Publications and other links Update of the User's profile FIC Telephone Numbers My Weather Data Folder Route Weather Data Regional Weather Data Local Weather Data To the Forecasts and Observations / NOTAM section
Request Generated 10/19/2018 at 15:27:55 UTC . Weather information available at that time is displayed.

METAR/TAF

KUUJJUARAPIK/QC    (show WxCam)

METAR CYGW 191500Z AUTO 13011G18KT 9SM CLR M03/M07 A2966 RMK SLP048=
METAR CYGW 191400Z AUTO 12013KT 9SM CLR M04/M07 A2970 RMK SLP059=
METAR CYGW 191300Z AUTO 11012KT 9SM CLR M06/M09 A2973 RMK SLP071=

TAF CYGW 191143Z 1912/1924 11012KT P6SM FEW030
BECMG 1912/1914 12015G25KT
FM191700 11015G25KT P6SM SCT020 TEMPO 1917/1924 BKN020
RMK FCST BASED ON AUTO OBS. NXT FCST BY 191800Z=
Your time UTC time
Weather data provided by Environment Canada and NAV CANADA